Motion Scan — PCNB — position and weather

sailwx.info

Track history (hours):
 
Tides and Currents Weather Stations Pressure Air Temp Water Temp Dewpoint Dewpoint Depression Visibility Wind Speed Wind Dir Waves Ship Positions

Motion Scan

Last reported at 2017-Jun-26 10:28 UTC. Time now 2017-Jul-20 16:35 UTC.
Position N 30°24' W 087°13'.
Warning: this ship's position is 24 days out of date.

Length 116 m; draft 5.6 m.

Type: Cargo ship. MMSI: 245523000.

Date/timePositionNaut miles runAvg speedWind from/ knotsBaromVisibWave heightAir tempDewpointWater temp
2017-Jun-26 10:28N 30°24' W 087°13'0 0.0
2017-Jun-26 09:58N 30°24' W 087°13'  
2017-Jun-23 04:38N 28°53' W 093°57'1611.6
2017-Jun-23 03:15N 29°01' W 094°12'3611.3
2017-Jun-23 00:06N 29°21' W 094°46'113.8
2017-Jun-23 00:00N 29°21' W 094°47'612.0
2017-Jun-22 23:30N 29°27' W 094°51'510.0
2017-Jun-22 23:00N 29°31' W 094°53'5 9.4
2017-Jun-22 22:30N 29°35' W 094°56'510.9
2017-Jun-22 22:00N 29°40' W 094°59'4 8.4
2017-Jun-22 21:30N 29°44' W 095°01'4 8.1
2017-Jun-22 21:01N 29°46' W 095°05'3 5.1
2017-Jun-22 20:30N 29°44' W 095°08'2 4.8
2017-Jun-22 20:00N 29°45' W 095°10'0 0.3
2017-Jun-22 19:30N 29°45' W 095°10'0 0.0
2017-Jun-22 19:00N 29°45' W 095°10'0 0.0
2017-Jun-22 18:30N 29°45' W 095°10'0 0.0
2017-Jun-22 18:00N 29°45' W 095°10'0 0.0
2017-Jun-22 17:30N 29°45' W 095°10'0 0.0
2017-Jun-22 17:00N 29°45' W 095°10'0 0.0
2017-Jun-22 16:30N 29°45' W 095°10'0 0.0
2017-Jun-22 16:00N 29°45' W 095°10'0 0.0
2017-Jun-22 15:30N 29°45' W 095°10'0 0.0
2017-Jun-22 15:00N 29°45' W 095°10'0 0.0
2017-Jun-22 14:00N 29°45' W 095°10'0 0.0
2017-Jun-22 13:27N 29°45' W 095°10'0 0.0
2017-Jun-22 13:00N 29°45' W 095°10'0 0.0
2017-Jun-22 12:30N 29°45' W 095°10'0 0.0
2017-Jun-22 12:00N 29°45' W 095°10'0 0.0
2017-Jun-22 11:30N 29°45' W 095°10'0 0.0
2017-Jun-22 11:00N 29°45' W 095°10'0 0.0
2017-Jun-22 10:30N 29°45' W 095°10'0 0.0
2017-Jun-22 10:00N 29°45' W 095°10'0 0.0
2017-Jun-22 09:30N 29°45' W 095°10'0 0.0
2017-Jun-22 08:57N 29°45' W 095°10'0 0.0
2017-Jun-22 08:30N 29°45' W 095°10'0 0.0
2017-Jun-22 08:00N 29°45' W 095°10'0 0.0
2017-Jun-22 07:30N 29°45' W 095°10'0 0.0
2017-Jun-22 07:00N 29°45' W 095°10'0 0.0
2017-Jun-22 06:27N 29°45' W 095°10'0 0.0
2017-Jun-22 05:57N 29°45' W 095°10'0 0.0
2017-Jun-22 05:30N 29°45' W 095°10'0 0.0
2017-Jun-22 04:57N 29°45' W 095°10'0 0.0
2017-Jun-22 04:24N 29°45' W 095°10'0 0.0
2017-Jun-22 03:57N 29°45' W 095°10'0 0.0
2017-Jun-22 03:30N 29°45' W 095°10'0 0.0
2017-Jun-22 03:00N 29°45' W 095°10'0 0.0
2017-Jun-22 02:30N 29°45' W 095°10'0 0.0
2017-Jun-22 01:57N 29°45' W 095°10'0 0.0
2017-Jun-22 01:30N 29°45' W 095°10'0 0.0
2017-Jun-22 01:00N 29°45' W 095°10'0 0.0
2017-Jun-22 00:30N 29°45' W 095°10'0 0.0
2017-Jun-22 00:00N 29°45' W 095°10'0 0.0
2017-Jun-21 23:30N 29°45' W 095°10'0 0.0
2017-Jun-21 23:00N 29°45' W 095°10'0 0.0
2017-Jun-21 22:30N 29°45' W 095°10'0 0.0
2017-Jun-21 21:57N 29°45' W 095°10'0 0.0
2017-Jun-21 21:30N 29°45' W 095°10'0 0.0
2017-Jun-21 21:00N 29°45' W 095°10'0 0.0
2017-Jun-21 20:27N 29°45' W 095°10'0 0.0
2017-Jun-21 20:00N 29°45' W 095°10'0 0.0
2017-Jun-21 19:30N 29°45' W 095°10'0 0.0
2017-Jun-21 18:57N 29°45' W 095°10'0 0.0
2017-Jun-21 18:30N 29°45' W 095°10'0 0.0
2017-Jun-21 18:00N 29°45' W 095°10'0 0.0
2017-Jun-21 17:30N 29°45' W 095°10'0 0.0
2017-Jun-21 17:00N 29°45' W 095°10'0 0.0
2017-Jun-21 16:30N 29°45' W 095°10'0 0.0
2017-Jun-21 16:00N 29°45' W 095°10'0 0.0
2017-Jun-21 15:30N 29°45' W 095°10'0 0.0
2017-Jun-21 15:00N 29°45' W 095°10'0 0.0
2017-Jun-21 14:00N 29°45' W 095°10'0 0.0
2017-Jun-21 13:30N 29°45' W 095°10'0 0.0
2017-Jun-21 13:00N 29°45' W 095°10'0 0.0
2017-Jun-21 12:30N 29°45' W 095°10'0 0.0
2017-Jun-21 12:00N 29°45' W 095°10'0 0.0
2017-Jun-21 11:30N 29°45' W 095°10'0 0.0
2017-Jun-21 11:00N 29°45' W 095°10'0 0.0
2017-Jun-21 10:30N 29°45' W 095°10'0 0.0
2017-Jun-21 10:00N 29°45' W 095°10'0 0.0
2017-Jun-21 09:30N 29°45' W 095°10'0 0.0
2017-Jun-21 09:00N 29°45' W 095°10'0 0.0
2017-Jun-21 08:30N 29°45' W 095°10'0 0.0
2017-Jun-21 08:00N 29°45' W 095°10'0 0.0
2017-Jun-21 07:30N 29°45' W 095°10'0 0.0
2017-Jun-21 07:00N 29°45' W 095°10'0 0.0
2017-Jun-21 06:30N 29°45' W 095°10'0 0.0
2017-Jun-21 06:00N 29°45' W 095°10'0 0.0
2017-Jun-21 05:30N 29°45' W 095°10'0 0.0
2017-Jun-21 05:00N 29°45' W 095°10'0 0.0
2017-Jun-21 04:27N 29°45' W 095°10'0 0.0
2017-Jun-21 04:00N 29°45' W 095°10'0 0.0
2017-Jun-21 03:30N 29°45' W 095°10'0 0.0
2017-Jun-21 03:00N 29°45' W 095°10'0 0.0
2017-Jun-21 02:30N 29°45' W 095°10'0 0.0
2017-Jun-21 02:00N 29°45' W 095°10'0 0.0
2017-Jun-21 01:30N 29°45' W 095°10'0 0.0
2017-Jun-21 01:00N 29°45' W 095°10'0 0.0
2017-Jun-21 00:30N 29°45' W 095°10'0 0.0
2017-Jun-20 23:57N 29°45' W 095°10'0 0.0
2017-Jun-20 23:30N 29°45' W 095°10'0 0.0
2017-Jun-20 23:00N 29°45' W 095°10'0 0.0
2017-Jun-20 22:30N 29°45' W 095°10'0 0.0
2017-Jun-20 22:00N 29°45' W 095°10'0 0.0
2017-Jun-20 21:30N 29°45' W 095°10'0 0.0
2017-Jun-20 21:00N 29°45' W 095°10'0 0.0
2017-Jun-20 20:30N 29°45' W 095°10'0 0.0
2017-Jun-20 20:00N 29°45' W 095°10'0 0.0
2017-Jun-20 19:30N 29°45' W 095°10'0 0.0
2017-Jun-20 19:00N 29°45' W 095°10'0 0.0
2017-Jun-20 18:30N 29°45' W 095°10'0 0.0
2017-Jun-20 18:00N 29°45' W 095°10'0 0.0
2017-Jun-20 17:30N 29°45' W 095°10'0 0.0
2017-Jun-20 16:57N 29°45' W 095°10'0 0.0
2017-Jun-20 16:30N 29°45' W 095°10'0 0.0
2017-Jun-20 16:00N 29°45' W 095°10'0 0.0
2017-Jun-20 15:30N 29°45' W 095°10'0 0.0
2017-Jun-20 15:00N 29°45' W 095°10'0 0.0
2017-Jun-20 14:00N 29°45' W 095°10'0 0.0
2017-Jun-20 13:24N 29°45' W 095°10'0 0.0
2017-Jun-20 13:00N 29°45' W 095°10'0 0.0
2017-Jun-20 12:30N 29°45' W 095°10'0 0.0
2017-Jun-20 12:00N 29°45' W 095°10'0 0.0
2017-Jun-20 11:27N 29°45' W 095°10'0 0.0
2017-Jun-20 11:00N 29°45' W 095°10'0 0.0
2017-Jun-20 10:30N 29°45' W 095°10'0 0.0
2017-Jun-20 09:57N 29°45' W 095°10'0 0.0
2017-Jun-20 09:30N 29°45' W 095°10'0 0.0
2017-Jun-20 08:57N 29°45' W 095°10'0 0.0
2017-Jun-20 08:30N 29°45' W 095°10'0 0.0
2017-Jun-20 08:00N 29°45' W 095°10'0 0.0
2017-Jun-20 07:30N 29°45' W 095°10'0 0.0
2017-Jun-20 07:00N 29°45' W 095°10'0 0.0
2017-Jun-20 06:30N 29°45' W 095°10'0 0.0
2017-Jun-20 06:00N 29°45' W 095°10'0 0.0
2017-Jun-20 05:30N 29°45' W 095°10'0 0.0
2017-Jun-20 05:00N 29°45' W 095°10'0 0.0
2017-Jun-20 04:30N 29°45' W 095°10'0 0.0
2017-Jun-20 04:00N 29°45' W 095°10'0 0.0
2017-Jun-20 03:30N 29°45' W 095°10'0 0.0
2017-Jun-20 03:00N 29°45' W 095°10'0 0.0
2017-Jun-20 02:30N 29°45' W 095°10'0 0.0
2017-Jun-20 02:00N 29°45' W 095°10'0 0.0
2017-Jun-20 01:30N 29°45' W 095°10'0 0.0
2017-Jun-20 01:00N 29°45' W 095°10'0 0.0
2017-Jun-20 00:30N 29°45' W 095°10'0 0.0
2017-Jun-19 23:57N 29°45' W 095°10'0 0.0
2017-Jun-19 23:27N 29°45' W 095°10'0 0.0
2017-Jun-19 23:00N 29°45' W 095°10'0 0.0
2017-Jun-19 22:30N 29°45' W 095°10'0 0.0
2017-Jun-19 22:00N 29°45' W 095°10'0 0.0
2017-Jun-19 21:30N 29°45' W 095°10'0 0.0
2017-Jun-19 21:00N 29°45' W 095°10'0 0.0
2017-Jun-19 20:27N 29°45' W 095°10'0 0.0
2017-Jun-19 19:57N 29°45' W 095°10'0 0.0
2017-Jun-19 19:30N 29°45' W 095°10'0 0.0
2017-Jun-19 19:00N 29°45' W 095°10'0 0.0
2017-Jun-19 18:30N 29°45' W 095°10'0 0.0
2017-Jun-19 17:57N 29°45' W 095°10'0 0.0
2017-Jun-19 17:30N 29°45' W 095°10'0 0.0
2017-Jun-19 17:00N 29°45' W 095°10'0 0.0
2017-Jun-19 16:30N 29°45' W 095°10'0 0.0
2017-Jun-19 16:00N 29°45' W 095°10'0 0.0
2017-Jun-19 15:30N 29°45' W 095°10'0 0.0
2017-Jun-19 15:00N 29°45' W 095°10'0 0.0
2017-Jun-19 14:30N 29°45' W 095°10'0 0.0
2017-Jun-19 11:40N 29°45' W 095°10'0 0.0
2017-Jun-18 11:11N 29°45' W 095°10'0 0.0
2017-Jun-18 10:59N 29°45' W 095°10'0 0.0
2017-Jun-18 10:29N 29°45' W 095°10'0 0.0
2017-Jun-18 09:59N 29°45' W 095°10'0 0.0
2017-Jun-18 09:29N 29°45' W 095°10'0 0.0
2017-Jun-18 08:53N 29°45' W 095°10'0 0.0
2017-Jun-18 08:29N 29°45' W 095°10'0 0.0
2017-Jun-18 07:53N 29°45' W 095°10'0 0.0
2017-Jun-18 07:29N 29°45' W 095°10'0 0.0
2017-Jun-18 06:59N 29°45' W 095°10'0 0.0
2017-Jun-18 06:29N 29°45' W 095°10'0 0.0
2017-Jun-18 05:59N 29°45' W 095°10'0 0.0
2017-Jun-18 05:29N 29°45' W 095°10'0 0.0
2017-Jun-18 04:59N 29°45' W 095°10'0 0.0
2017-Jun-18 04:29N 29°45' W 095°10'0 0.0
2017-Jun-18 03:59N 29°45' W 095°10'0 0.0
2017-Jun-18 03:26N 29°45' W 095°10'0 0.0
2017-Jun-18 02:59N 29°45' W 095°10'0 0.0
2017-Jun-18 02:29N 29°45' W 095°10'0 0.0
2017-Jun-18 01:53N 29°45' W 095°10'0 0.0
2017-Jun-18 01:29N 29°45' W 095°10'0 0.0
2017-Jun-18 00:59N 29°45' W 095°10'0 0.0
2017-Jun-18 00:26N 29°45' W 095°10'0 0.0
2017-Jun-17 23:56N 29°45' W 095°10'0 0.0
2017-Jun-17 23:29N 29°45' W 095°10'0 0.0
2017-Jun-17 22:59N 29°45' W 095°10'0 0.0
2017-Jun-17 21:14N 29°45' W 095°10'0 0.0
2017-Jun-17 20:50N 29°45' W 095°10'0 0.0
2017-Jun-17 19:50N 29°45' W 095°10'0 0.0
2017-Jun-17 19:26N 29°45' W 095°10'0 0.0
2017-Jun-17 18:32N 29°45' W 095°10'0 0.0
2017-Jun-17 18:26N 29°45' W 095°10'0 0.0
2017-Jun-17 17:59N 29°45' W 095°10'0 0.0
2017-Jun-17 17:26N 29°45' W 095°10'0 0.0
2017-Jun-17 16:56N 29°45' W 095°10'0 0.0
2017-Jun-17 16:29N 29°45' W 095°10'0 0.0
2017-Jun-17 15:56N 29°45' W 095°10'0 0.0
2017-Jun-17 15:26N 29°45' W 095°10'0 0.0
2017-Jun-17 13:26N 29°45' W 095°10'0 0.0
2017-Jun-17 12:38N 29°45' W 095°10'0 0.0
2017-Jun-17 12:29N 29°45' W 095°10'0 0.0
2017-Jun-17 11:59N 29°45' W 095°10'0 0.0
2017-Jun-17 11:29N 29°45' W 095°10'0 0.0
2017-Jun-17 10:59N 29°45' W 095°10'0 0.0
2017-Jun-17 10:29N 29°45' W 095°10'0 0.0
2017-Jun-17 09:59N 29°45' W 095°10'0 0.0
2017-Jun-17 09:29N 29°45' W 095°10'0 0.0
2017-Jun-17 08:56N 29°45' W 095°10'0 0.0
2017-Jun-17 08:29N 29°45' W 095°10'0 0.0
2017-Jun-17 07:59N 29°45' W 095°10'0 0.0
2017-Jun-17 07:26N 29°45' W 095°10'0 0.0
2017-Jun-17 06:59N 29°45' W 095°10'0 0.0
2017-Jun-17 06:29N 29°45' W 095°10'0 0.0
2017-Jun-17 05:59N 29°45' W 095°10'0 0.0
2017-Jun-17 05:29N 29°45' W 095°10'0 0.0
2017-Jun-17 04:53N 29°45' W 095°10'0 0.0
2017-Jun-17 04:14N 29°45' W 095°10'0 0.0
2017-Jun-17 03:59N 29°45' W 095°10'0 0.0
2017-Jun-17 03:29N 29°45' W 095°10'0 0.0
2017-Jun-17 02:59N 29°45' W 095°10'0 0.0
2017-Jun-17 02:26N 29°45' W 095°10'0 0.0
2017-Jun-17 01:56N 29°45' W 095°10'0 0.0
2017-Jun-17 01:29N 29°45' W 095°10'0 0.0
2017-Jun-17 00:56N 29°45' W 095°10'0 0.0
2017-Jun-17 00:23N 29°45' W 095°10'0 0.0
2017-Jun-16 23:56N 29°45' W 095°10'0 0.0
2017-Jun-16 23:29N 29°45' W 095°10'0 0.0
2017-Jun-16 22:53N 29°45' W 095°10'0 0.0
2017-Jun-16 22:11N 29°45' W 095°10'0 0.0
2017-Jun-16 21:50N 29°45' W 095°10'0 0.0
2017-Jun-16 21:26N 29°45' W 095°10'0 0.0
2017-Jun-16 20:56N 29°45' W 095°10'0 0.0
2017-Jun-16 20:08N 29°45' W 095°10'0 0.0
2017-Jun-16 19:56N 29°45' W 095°10'0 0.0
2017-Jun-16 19:29N 29°45' W 095°10'0 0.0
2017-Jun-16 18:59N 29°45' W 095°10'0 0.0
2017-Jun-16 18:29N 29°45' W 095°10'0 0.0
2017-Jun-16 17:53N 29°45' W 095°10'0 0.0
2017-Jun-16 17:29N 29°45' W 095°10'0 0.0
2017-Jun-16 16:56N 29°45' W 095°10'0 0.0
2017-Jun-16 16:29N 29°45' W 095°10'0 0.0
2017-Jun-16 15:59N 29°45' W 095°10'0 0.0
2017-Jun-16 15:29N 29°45' W 095°10'0 0.0
2017-Jun-16 14:59N 29°45' W 095°10'0 0.0
2017-Jun-16 14:08N 29°45' W 095°10'0 0.0
2017-Jun-16 13:20N 29°45' W 095°10'0 0.0
2017-Jun-16 12:59N 29°45' W 095°10'0 0.0
2017-Jun-16 12:29N 29°45' W 095°10'  
Track history (hours):
 
Tides and Currents Weather Stations Pressure Air Temp Water Temp Dewpoint Dewpoint Depression Visibility Wind Speed Wind Dir Waves Ship Positions

Motion Scan

Last reported at 2017-Jun-26 10:28 UTC. Time now 2017-Jul-20 16:35 UTC.
Position N 30°24' W 087°13'.
Warning: this ship's position is 24 days out of date.

Length 116 m; draft 5.6 m.

Type: Cargo ship. MMSI: 245523000.

Date/timePositionNaut miles runAvg speedWind from/ knotsBaromVisibWave heightAir tempDewpointWater temp
2017-Jun-26 10:28N 30°24' W 087°13'0 0.0
2017-Jun-26 09:58N 30°24' W 087°13'  
2017-Jun-23 04:38N 28°53' W 093°57'1611.6
2017-Jun-23 03:15N 29°01' W 094°12'3611.3
2017-Jun-23 00:06N 29°21' W 094°46'113.8
2017-Jun-23 00:00N 29°21' W 094°47'612.0
2017-Jun-22 23:30N 29°27' W 094°51'510.0
2017-Jun-22 23:00N 29°31' W 094°53'5 9.4
2017-Jun-22 22:30N 29°35' W 094°56'510.9
2017-Jun-22 22:00N 29°40' W 094°59'4 8.4
2017-Jun-22 21:30N 29°44' W 095°01'4 8.1
2017-Jun-22 21:01N 29°46' W 095°05'3 5.1
2017-Jun-22 20:30N 29°44' W 095°08'2 4.8
2017-Jun-22 20:00N 29°45' W 095°10'0 0.3
2017-Jun-22 19:30N 29°45' W 095°10'0 0.0
2017-Jun-22 19:00N 29°45' W 095°10'0 0.0
2017-Jun-22 18:30N 29°45' W 095°10'0 0.0
2017-Jun-22 18:00N 29°45' W 095°10'0 0.0
2017-Jun-22 17:30N 29°45' W 095°10'0 0.0
2017-Jun-22 17:00N 29°45' W 095°10'0 0.0
2017-Jun-22 16:30N 29°45' W 095°10'0 0.0
2017-Jun-22 16:00N 29°45' W 095°10'0 0.0
2017-Jun-22 15:30N 29°45' W 095°10'0 0.0
2017-Jun-22 15:00N 29°45' W 095°10'0 0.0
2017-Jun-22 14:00N 29°45' W 095°10'0 0.0
2017-Jun-22 13:27N 29°45' W 095°10'0 0.0
2017-Jun-22 13:00N 29°45' W 095°10'0 0.0
2017-Jun-22 12:30N 29°45' W 095°10'0 0.0
2017-Jun-22 12:00N 29°45' W 095°10'0 0.0
2017-Jun-22 11:30N 29°45' W 095°10'0 0.0
2017-Jun-22 11:00N 29°45' W 095°10'0 0.0
2017-Jun-22 10:30N 29°45' W 095°10'0 0.0
2017-Jun-22 10:00N 29°45' W 095°10'0 0.0
2017-Jun-22 09:30N 29°45' W 095°10'0 0.0
2017-Jun-22 08:57N 29°45' W 095°10'0 0.0
2017-Jun-22 08:30N 29°45' W 095°10'0 0.0
2017-Jun-22 08:00N 29°45' W 095°10'0 0.0
2017-Jun-22 07:30N 29°45' W 095°10'0 0.0
2017-Jun-22 07:00N 29°45' W 095°10'0 0.0
2017-Jun-22 06:27N 29°45' W 095°10'0 0.0
2017-Jun-22 05:57N 29°45' W 095°10'0 0.0
2017-Jun-22 05:30N 29°45' W 095°10'0 0.0
2017-Jun-22 04:57N 29°45' W 095°10'0 0.0
2017-Jun-22 04:24N 29°45' W 095°10'0 0.0
2017-Jun-22 03:57N 29°45' W 095°10'0 0.0
2017-Jun-22 03:30N 29°45' W 095°10'0 0.0
2017-Jun-22 03:00N 29°45' W 095°10'0 0.0
2017-Jun-22 02:30N 29°45' W 095°10'0 0.0
2017-Jun-22 01:57N 29°45' W 095°10'0 0.0
2017-Jun-22 01:30N 29°45' W 095°10'0 0.0
2017-Jun-22 01:00N 29°45' W 095°10'0 0.0
2017-Jun-22 00:30N 29°45' W 095°10'0 0.0
2017-Jun-22 00:00N 29°45' W 095°10'0 0.0
2017-Jun-21 23:30N 29°45' W 095°10'0 0.0
2017-Jun-21 23:00N 29°45' W 095°10'0 0.0
2017-Jun-21 22:30N 29°45' W 095°10'0 0.0
2017-Jun-21 21:57N 29°45' W 095°10'0 0.0
2017-Jun-21 21:30N 29°45' W 095°10'0 0.0
2017-Jun-21 21:00N 29°45' W 095°10'0 0.0
2017-Jun-21 20:27N 29°45' W 095°10'0 0.0
2017-Jun-21 20:00N 29°45' W 095°10'0 0.0
2017-Jun-21 19:30N 29°45' W 095°10'0 0.0
2017-Jun-21 18:57N 29°45' W 095°10'0 0.0
2017-Jun-21 18:30N 29°45' W 095°10'0 0.0
2017-Jun-21 18:00N 29°45' W 095°10'0 0.0
2017-Jun-21 17:30N 29°45' W 095°10'0 0.0
2017-Jun-21 17:00N 29°45' W 095°10'0 0.0
2017-Jun-21 16:30N 29°45' W 095°10'0 0.0
2017-Jun-21 16:00N 29°45' W 095°10'0 0.0
2017-Jun-21 15:30N 29°45' W 095°10'0 0.0
2017-Jun-21 15:00N 29°45' W 095°10'0 0.0
2017-Jun-21 14:00N 29°45' W 095°10'0 0.0
2017-Jun-21 13:30N 29°45' W 095°10'0 0.0
2017-Jun-21 13:00N 29°45' W 095°10'0 0.0
2017-Jun-21 12:30N 29°45' W 095°10'0 0.0
2017-Jun-21 12:00N 29°45' W 095°10'0 0.0
2017-Jun-21 11:30N 29°45' W 095°10'0 0.0
2017-Jun-21 11:00N 29°45' W 095°10'0 0.0
2017-Jun-21 10:30N 29°45' W 095°10'0 0.0
2017-Jun-21 10:00N 29°45' W 095°10'0 0.0
2017-Jun-21 09:30N 29°45' W 095°10'0 0.0
2017-Jun-21 09:00N 29°45' W 095°10'0 0.0
2017-Jun-21 08:30N 29°45' W 095°10'0 0.0
2017-Jun-21 08:00N 29°45' W 095°10'0 0.0
2017-Jun-21 07:30N 29°45' W 095°10'0 0.0
2017-Jun-21 07:00N 29°45' W 095°10'0 0.0
2017-Jun-21 06:30N 29°45' W 095°10'0 0.0
2017-Jun-21 06:00N 29°45' W 095°10'0 0.0
2017-Jun-21 05:30N 29°45' W 095°10'0 0.0
2017-Jun-21 05:00N 29°45' W 095°10'0 0.0
2017-Jun-21 04:27N 29°45' W 095°10'0 0.0
2017-Jun-21 04:00N 29°45' W 095°10'0 0.0
2017-Jun-21 03:30N 29°45' W 095°10'0 0.0
2017-Jun-21 03:00N 29°45' W 095°10'0 0.0
2017-Jun-21 02:30N 29°45' W 095°10'0 0.0
2017-Jun-21 02:00N 29°45' W 095°10'0 0.0
2017-Jun-21 01:30N 29°45' W 095°10'0 0.0
2017-Jun-21 01:00N 29°45' W 095°10'0 0.0
2017-Jun-21 00:30N 29°45' W 095°10'0 0.0
2017-Jun-20 23:57N 29°45' W 095°10'0 0.0
2017-Jun-20 23:30N 29°45' W 095°10'0 0.0
2017-Jun-20 23:00N 29°45' W 095°10'0 0.0
2017-Jun-20 22:30N 29°45' W 095°10'0 0.0
2017-Jun-20 22:00N 29°45' W 095°10'0 0.0
2017-Jun-20 21:30N 29°45' W 095°10'0 0.0
2017-Jun-20 21:00N 29°45' W 095°10'0 0.0
2017-Jun-20 20:30N 29°45' W 095°10'0 0.0
2017-Jun-20 20:00N 29°45' W 095°10'0 0.0
2017-Jun-20 19:30N 29°45' W 095°10'0 0.0
2017-Jun-20 19:00N 29°45' W 095°10'0 0.0
2017-Jun-20 18:30N 29°45' W 095°10'0 0.0
2017-Jun-20 18:00N 29°45' W 095°10'0 0.0
2017-Jun-20 17:30N 29°45' W 095°10'0 0.0
2017-Jun-20 16:57N 29°45' W 095°10'0 0.0
2017-Jun-20 16:30N 29°45' W 095°10'0 0.0
2017-Jun-20 16:00N 29°45' W 095°10'0 0.0
2017-Jun-20 15:30N 29°45' W 095°10'0 0.0
2017-Jun-20 15:00N 29°45' W 095°10'0 0.0
2017-Jun-20 14:00N 29°45' W 095°10'0 0.0
2017-Jun-20 13:24N 29°45' W 095°10'0 0.0
2017-Jun-20 13:00N 29°45' W 095°10'0 0.0
2017-Jun-20 12:30N 29°45' W 095°10'0 0.0
2017-Jun-20 12:00N 29°45' W 095°10'0 0.0
2017-Jun-20 11:27N 29°45' W 095°10'0 0.0
2017-Jun-20 11:00N 29°45' W 095°10'0 0.0
2017-Jun-20 10:30N 29°45' W 095°10'0 0.0
2017-Jun-20 09:57N 29°45' W 095°10'0 0.0
2017-Jun-20 09:30N 29°45' W 095°10'0 0.0
2017-Jun-20 08:57N 29°45' W 095°10'0 0.0
2017-Jun-20 08:30N 29°45' W 095°10'0 0.0
2017-Jun-20 08:00N 29°45' W 095°10'0 0.0
2017-Jun-20 07:30N 29°45' W 095°10'0 0.0
2017-Jun-20 07:00N 29°45' W 095°10'0 0.0
2017-Jun-20 06:30N 29°45' W 095°10'0 0.0
2017-Jun-20 06:00N 29°45' W 095°10'0 0.0
2017-Jun-20 05:30N 29°45' W 095°10'0 0.0
2017-Jun-20 05:00N 29°45' W 095°10'0 0.0
2017-Jun-20 04:30N 29°45' W 095°10'0 0.0
2017-Jun-20 04:00N 29°45' W 095°10'0 0.0
2017-Jun-20 03:30N 29°45' W 095°10'0 0.0
2017-Jun-20 03:00N 29°45' W 095°10'0 0.0
2017-Jun-20 02:30N 29°45' W 095°10'0 0.0
2017-Jun-20 02:00N 29°45' W 095°10'0 0.0
2017-Jun-20 01:30N 29°45' W 095°10'0 0.0
2017-Jun-20 01:00N 29°45' W 095°10'0 0.0
2017-Jun-20 00:30N 29°45' W 095°10'0 0.0
2017-Jun-19 23:57N 29°45' W 095°10'0 0.0
2017-Jun-19 23:27N 29°45' W 095°10'0 0.0
2017-Jun-19 23:00N 29°45' W 095°10'0 0.0
2017-Jun-19 22:30N 29°45' W 095°10'0 0.0
2017-Jun-19 22:00N 29°45' W 095°10'0 0.0
2017-Jun-19 21:30N 29°45' W 095°10'0 0.0
2017-Jun-19 21:00N 29°45' W 095°10'0 0.0
2017-Jun-19 20:27N 29°45' W 095°10'0 0.0
2017-Jun-19 19:57N 29°45' W 095°10'0 0.0
2017-Jun-19 19:30N 29°45' W 095°10'0 0.0
2017-Jun-19 19:00N 29°45' W 095°10'0 0.0
2017-Jun-19 18:30N 29°45' W 095°10'0 0.0
2017-Jun-19 17:57N 29°45' W 095°10'0 0.0
2017-Jun-19 17:30N 29°45' W 095°10'0 0.0
2017-Jun-19 17:00N 29°45' W 095°10'0 0.0
2017-Jun-19 16:30N 29°45' W 095°10'0 0.0
2017-Jun-19 16:00N 29°45' W 095°10'0 0.0
2017-Jun-19 15:30N 29°45' W 095°10'0 0.0
2017-Jun-19 15:00N 29°45' W 095°10'0 0.0
2017-Jun-19 14:30N 29°45' W 095°10'0 0.0
2017-Jun-19 11:40N 29°45' W 095°10'0 0.0
2017-Jun-18 11:11N 29°45' W 095°10'0 0.0
2017-Jun-18 10:59N 29°45' W 095°10'0 0.0
2017-Jun-18 10:29N 29°45' W 095°10'0 0.0
2017-Jun-18 09:59N 29°45' W 095°10'0 0.0
2017-Jun-18 09:29N 29°45' W 095°10'0 0.0
2017-Jun-18 08:53N 29°45' W 095°10'0 0.0
2017-Jun-18 08:29N 29°45' W 095°10'0 0.0
2017-Jun-18 07:53N 29°45' W 095°10'0 0.0
2017-Jun-18 07:29N 29°45' W 095°10'0 0.0
2017-Jun-18 06:59N 29°45' W 095°10'0 0.0
2017-Jun-18 06:29N 29°45' W 095°10'0 0.0
2017-Jun-18 05:59N 29°45' W 095°10'0 0.0
2017-Jun-18 05:29N 29°45' W 095°10'0 0.0
2017-Jun-18 04:59N 29°45' W 095°10'0 0.0
2017-Jun-18 04:29N 29°45' W 095°10'0 0.0
2017-Jun-18 03:59N 29°45' W 095°10'0 0.0
2017-Jun-18 03:26N 29°45' W 095°10'0 0.0
2017-Jun-18 02:59N 29°45' W 095°10'0 0.0
2017-Jun-18 02:29N 29°45' W 095°10'0 0.0
2017-Jun-18 01:53N 29°45' W 095°10'0 0.0
2017-Jun-18 01:29N 29°45' W 095°10'0 0.0
2017-Jun-18 00:59N 29°45' W 095°10'0 0.0
2017-Jun-18 00:26N 29°45' W 095°10'0 0.0
2017-Jun-17 23:56N 29°45' W 095°10'0 0.0
2017-Jun-17 23:29N 29°45' W 095°10'0 0.0
2017-Jun-17 22:59N 29°45' W 095°10'0 0.0
2017-Jun-17 21:14N 29°45' W 095°10'0 0.0
2017-Jun-17 20:50N 29°45' W 095°10'0 0.0
2017-Jun-17 19:50N 29°45' W 095°10'0 0.0
2017-Jun-17 19:26N 29°45' W 095°10'0 0.0
2017-Jun-17 18:32N 29°45' W 095°10'0 0.0
2017-Jun-17 18:26N 29°45' W 095°10'0 0.0
2017-Jun-17 17:59N 29°45' W 095°10'0 0.0
2017-Jun-17 17:26N 29°45' W 095°10'0 0.0
2017-Jun-17 16:56N 29°45' W 095°10'0 0.0
2017-Jun-17 16:29N 29°45' W 095°10'0 0.0
2017-Jun-17 15:56N 29°45' W 095°10'0 0.0
2017-Jun-17 15:26N 29°45' W 095°10'0 0.0
2017-Jun-17 13:26N 29°45' W 095°10'0 0.0
2017-Jun-17 12:38N 29°45' W 095°10'0 0.0
2017-Jun-17 12:29N 29°45' W 095°10'0 0.0
2017-Jun-17 11:59N 29°45' W 095°10'0 0.0
2017-Jun-17 11:29N 29°45' W 095°10'0 0.0
2017-Jun-17 10:59N 29°45' W 095°10'0 0.0
2017-Jun-17 10:29N 29°45' W 095°10'0 0.0
2017-Jun-17 09:59N 29°45' W 095°10'0 0.0
2017-Jun-17 09:29N 29°45' W 095°10'0 0.0
2017-Jun-17 08:56N 29°45' W 095°10'0 0.0
2017-Jun-17 08:29N 29°45' W 095°10'0 0.0
2017-Jun-17 07:59N 29°45' W 095°10'0 0.0
2017-Jun-17 07:26N 29°45' W 095°10'0 0.0
2017-Jun-17 06:59N 29°45' W 095°10'0 0.0
2017-Jun-17 06:29N 29°45' W 095°10'0 0.0
2017-Jun-17 05:59N 29°45' W 095°10'0 0.0
2017-Jun-17 05:29N 29°45' W 095°10'0 0.0
2017-Jun-17 04:53N 29°45' W 095°10'0 0.0
2017-Jun-17 04:14N 29°45' W 095°10'0 0.0
2017-Jun-17 03:59N 29°45' W 095°10'0 0.0
2017-Jun-17 03:29N 29°45' W 095°10'0 0.0
2017-Jun-17 02:59N 29°45' W 095°10'0 0.0
2017-Jun-17 02:26N 29°45' W 095°10'0 0.0
2017-Jun-17 01:56N 29°45' W 095°10'0 0.0
2017-Jun-17 01:29N 29°45' W 095°10'0 0.0
2017-Jun-17 00:56N 29°45' W 095°10'0 0.0
2017-Jun-17 00:23N 29°45' W 095°10'0 0.0
2017-Jun-16 23:56N 29°45' W 095°10'0 0.0
2017-Jun-16 23:29N 29°45' W 095°10'0 0.0
2017-Jun-16 22:53N 29°45' W 095°10'0 0.0
2017-Jun-16 22:11N 29°45' W 095°10'0 0.0
2017-Jun-16 21:50N 29°45' W 095°10'0 0.0
2017-Jun-16 21:26N 29°45' W 095°10'0 0.0
2017-Jun-16 20:56N 29°45' W 095°10'0 0.0
2017-Jun-16 20:08N 29°45' W 095°10'0 0.0
2017-Jun-16 19:56N 29°45' W 095°10'0 0.0
2017-Jun-16 19:29N 29°45' W 095°10'0 0.0
2017-Jun-16 18:59N 29°45' W 095°10'0 0.0
2017-Jun-16 18:29N 29°45' W 095°10'0 0.0
2017-Jun-16 17:53N 29°45' W 095°10'0 0.0
2017-Jun-16 17:29N 29°45' W 095°10'0 0.0
2017-Jun-16 16:56N 29°45' W 095°10'0 0.0
2017-Jun-16 16:29N 29°45' W 095°10'0 0.0
2017-Jun-16 15:59N 29°45' W 095°10'0 0.0
2017-Jun-16 15:29N 29°45' W 095°10'0 0.0
2017-Jun-16 14:59N 29°45' W 095°10'0 0.0
2017-Jun-16 14:08N 29°45' W 095°10'0 0.0
2017-Jun-16 13:20N 29°45' W 095°10'0 0.0
2017-Jun-16 12:59N 29°45' W 095°10'0 0.0
2017-Jun-16 12:29N 29°45' W 095°10'  

Dump ship's entire track history